Briefing drone pour Romorantin-lanthenay (LFYR)

Rechercher une autre localisation

Conditions de vol :


Nous sommes le : Jeudi 20 janvier 2022
Il est 05:16 UTC (06:16 LT)

Lever de soleil : 07:05 UTC (08:05 LT)
Coucher de soleil : 17:02 UTC (18:02 LT)

Météo

L'essentiel des conditions de vol

VIGILANCE MÉTÉO FRANCE - Loir-et-Cher (41)
Pas de vigilances particulieres
CARTE TEMSI
CARTES DES FRONTS
METAR de LFYR
LFYR 200500Z AUTO 00000KT 4500 BR BKN004 BKN012 OVC019 05/05 Q1030

Date d'émission: 20/01/2022
Heure d'émission: 05:00 UTC
Vent: Calme
Visibilité horizontale: 4500 m
Plafond :
- Nuages morcelés à 400ft (122m)
- Nuages morcelés à 1200ft (366m)
- Couvert à 1900ft (579m)
Température: 5 °C
Point de rosée: 5 °C
Humidité: 100%
Pression (QNH): 1030 hPa
Conditions: Brume
TAF de LFYR
AMD LFYR 191604Z 1916/2015 CNL

Conditions prévues :

Heure d'émission : Bulletin éffectué le 19 à 16:00 UTC
Prévision : Valide du 19 a 16:00 UTC au 20 a 15:00 UTC
Nuages : à 0ft (0 m)
WEBCAM POUR ROMORANTIN-LANTHENAY

Réglementation

Voler en sécurité

CARTES AERONAUTIQUE 1/500.000
CARTES VAC (LFYR)
SUP AIP




Chargement des AIP...
NOTAM (ROMORANTIN-LANTHENAY + Terrain à proximité / FIR )




Chargement des NOTAMS...
CONTACT PREFECTURE 41
Loir-et-Cher (41) : pref-bpas@loir-et-cher.gouv.fr


Avertissement : Les données mises à disposition sont indicatives. Oxygène Drone ne pourra être tenu responsable de dégâts causés aux biens et aux personnes.